sensor_id;sensor_type;location;lat;lon;timestamp;pressure;altitude;pressure_sealevel;temperature;humidity
64253;BME280;50592;52.958;-7.470;2022-08-25T00:00:42;100773.03;;;14.00;69.06
64253;BME280;50592;52.958;-7.470;2022-08-25T00:03:09;100775.38;;;14.03;69.77
64253;BME280;50592;52.958;-7.470;2022-08-25T00:05:36;100769.25;;;14.02;70.00
64253;BME280;50592;52.958;-7.470;2022-08-25T00:08:02;100772.88;;;14.01;70.07
64253;BME280;50592;52.958;-7.470;2022-08-25T00:10:32;100767.22;;;13.96;70.51
64253;BME280;50592;52.958;-7.470;2022-08-25T00:13:02;100778.66;;;13.97;70.47
64253;BME280;50592;52.958;-7.470;2022-08-25T00:15:29;100780.97;;;13.92;70.65
64253;BME280;50592;52.958;-7.470;2022-08-25T00:17:56;100771.16;;;13.92;71.16
64253;BME280;50592;52.958;-7.470;2022-08-25T00:20:22;100770.00;;;13.86;71.12
64253;BME280;50592;52.958;-7.470;2022-08-25T00:22:48;100776.97;;;13.87;71.32
64253;BME280;50592;52.958;-7.470;2022-08-25T00:25:14;100777.28;;;13.84;71.42
64253;BME280;50592;52.958;-7.470;2022-08-25T00:27:40;100777.44;;;13.83;71.81
64253;BME280;50592;52.958;-7.470;2022-08-25T00:30:08;100772.97;;;13.83;71.61
64253;BME280;50592;52.958;-7.470;2022-08-25T00:32:35;100768.06;;;13.70;71.73
64253;BME280;50592;52.958;-7.470;2022-08-25T00:35:02;100769.31;;;13.58;71.85
64253;BME280;50592;52.958;-7.470;2022-08-25T00:37:28;100781.69;;;13.49;71.83
64253;BME280;50592;52.958;-7.470;2022-08-25T00:39:54;100786.88;;;13.32;72.57
64253;BME280;50592;52.958;-7.470;2022-08-25T00:42:22;100782.50;;;13.23;72.74
64253;BME280;50592;52.958;-7.470;2022-08-25T00:44:49;100773.31;;;13.17;73.01
64253;BME280;50592;52.958;-7.470;2022-08-25T00:47:15;100778.03;;;13.23;73.09
64253;BME280;50592;52.958;-7.470;2022-08-25T00:49:45;100785.88;;;13.33;72.71
64253;BME280;50592;52.958;-7.470;2022-08-25T00:52:15;100788.03;;;13.30;72.61
64253;BME280;50592;52.958;-7.470;2022-08-25T00:54:56;100788.56;;;13.15;72.53
64253;BME280;50592;52.958;-7.470;2022-08-25T00:57:27;100792.94;;;13.06;72.53
64253;BME280;50592;52.958;-7.470;2022-08-25T00:59:54;100796.00;;;12.93;72.40
64253;BME280;50592;52.958;-7.470;2022-08-25T01:02:20;100796.81;;;12.75;72.47
64253;BME280;50592;52.958;-7.470;2022-08-25T01:04:46;100798.00;;;12.63;72.57
64253;BME280;50592;52.958;-7.470;2022-08-25T01:07:13;100794.81;;;12.59;72.89
64253;BME280;50592;52.958;-7.470;2022-08-25T01:09:40;100798.84;;;12.63;72.97
64253;BME280;50592;52.958;-7.470;2022-08-25T01:12:06;100791.44;;;12.67;72.49
64253;BME280;50592;52.958;-7.470;2022-08-25T01:14:34;100795.28;;;12.73;72.50
64253;BME280;50592;52.958;-7.470;2022-08-25T01:17:01;100798.78;;;12.73;72.25
64253;BME280;50592;52.958;-7.470;2022-08-25T01:19:27;100797.94;;;12.73;72.26
64253;BME280;50592;52.958;-7.470;2022-08-25T01:21:54;100795.00;;;12.76;72.65
64253;BME280;50592;52.958;-7.470;2022-08-25T01:27:06;100794.69;;;12.79;72.39
64253;BME280;50592;52.958;-7.470;2022-08-25T01:29:32;100801.44;;;12.73;71.96
64253;BME280;50592;52.958;-7.470;2022-08-25T01:32:02;100805.09;;;12.72;72.28
64253;BME280;50592;52.958;-7.470;2022-08-25T01:34:31;100806.66;;;12.65;72.23
64253;BME280;50592;52.958;-7.470;2022-08-25T01:36:58;100803.09;;;12.56;72.23
64253;BME280;50592;52.958;-7.470;2022-08-25T01:39:26;100812.75;;;12.47;71.90
64253;BME280;50592;52.958;-7.470;2022-08-25T01:44:29;100816.13;;;12.11;72.69
64253;BME280;50592;52.958;-7.470;2022-08-25T01:46:55;100820.28;;;12.04;72.80
64253;BME280;50592;52.958;-7.470;2022-08-25T01:49:21;100814.97;;;12.04;72.65
64253;BME280;50592;52.958;-7.470;2022-08-25T01:51:51;100812.63;;;12.01;72.69
64253;BME280;50592;52.958;-7.470;2022-08-25T01:54:18;100822.41;;;12.00;72.40
64253;BME280;50592;52.958;-7.470;2022-08-25T01:56:44;100815.81;;;12.04;72.25
64253;BME280;50592;52.958;-7.470;2022-08-25T01:59:09;100814.69;;;12.07;72.36
64253;BME280;50592;52.958;-7.470;2022-08-25T02:01:36;100827.84;;;12.09;72.20
64253;BME280;50592;52.958;-7.470;2022-08-25T02:04:02;100824.38;;;12.08;72.34
64253;BME280;50592;52.958;-7.470;2022-08-25T02:06:31;100823.53;;;12.08;72.39
64253;BME280;50592;52.958;-7.470;2022-08-25T02:09:00;100829.78;;;12.07;72.29
64253;BME280;50592;52.958;-7.470;2022-08-25T02:11:27;100828.22;;;12.04;72.50
64253;BME280;50592;52.958;-7.470;2022-08-25T02:13:53;100827.13;;;12.07;72.71
64253;BME280;50592;52.958;-7.470;2022-08-25T02:16:28;100830.06;;;12.13;73.10
64253;BME280;50592;52.958;-7.470;2022-08-25T02:18:56;100842.19;;;12.16;72.91
64253;BME280;50592;52.958;-7.470;2022-08-25T02:21:24;100834.25;;;12.16;73.06
64253;BME280;50592;52.958;-7.470;2022-08-25T02:23:50;100838.03;;;12.13;73.43
64253;BME280;50592;52.958;-7.470;2022-08-25T02:26:16;100837.03;;;12.04;73.58
64253;BME280;50592;52.958;-7.470;2022-08-25T02:28:45;100838.31;;;12.00;73.83
64253;BME280;50592;52.958;-7.470;2022-08-25T02:31:12;100839.41;;;11.98;74.00
64253;BME280;50592;52.958;-7.470;2022-08-25T02:33:38;100840.94;;;12.00;74.07
64253;BME280;50592;52.958;-7.470;2022-08-25T02:36:04;100842.19;;;12.06;73.98
64253;BME280;50592;52.958;-7.470;2022-08-25T02:38:30;100838.69;;;12.06;74.31
64253;BME280;50592;52.958;-7.470;2022-08-25T02:40:57;100843.84;;;12.07;74.49
64253;BME280;50592;52.958;-7.470;2022-08-25T02:43:24;100838.69;;;12.06;74.64
64253;BME280;50592;52.958;-7.470;2022-08-25T02:45:51;100840.38;;;12.07;75.14
64253;BME280;50592;52.958;-7.470;2022-08-25T02:48:17;100843.97;;;12.06;75.21
64253;BME280;50592;52.958;-7.470;2022-08-25T02:50:48;100846.25;;;12.00;75.42
64253;BME280;50592;52.958;-7.470;2022-08-25T02:53:16;100851.56;;;12.00;75.47
64253;BME280;50592;52.958;-7.470;2022-08-25T02:55:42;100845.84;;;11.95;75.72
64253;BME280;50592;52.958;-7.470;2022-08-25T02:58:08;100847.66;;;11.95;75.80
64253;BME280;50592;52.958;-7.470;2022-08-25T03:00:35;100850.84;;;11.98;75.75
64253;BME280;50592;52.958;-7.470;2022-08-25T03:03:02;100842.63;;;12.01;75.68
64253;BME280;50592;52.958;-7.470;2022-08-25T03:05:28;100841.09;;;12.09;75.61
64253;BME280;50592;52.958;-7.470;2022-08-25T03:07:54;100840.13;;;12.10;75.18
64253;BME280;50592;52.958;-7.470;2022-08-25T03:10:20;100849.06;;;12.09;74.80
64253;BME280;50592;52.958;-7.470;2022-08-25T03:12:46;100843.84;;;12.07;75.10
64253;BME280;50592;52.958;-7.470;2022-08-25T03:15:15;100847.63;;;12.04;74.72
64253;BME280;50592;52.958;-7.470;2022-08-25T03:17:42;100845.84;;;11.95;74.41
64253;BME280;50592;52.958;-7.470;2022-08-25T03:20:08;100844.78;;;11.78;74.70
64253;BME280;50592;52.958;-7.470;2022-08-25T03:22:34;100843.25;;;11.65;74.86
64253;BME280;50592;52.958;-7.470;2022-08-25T03:25:02;100838.91;;;11.64;74.74
64253;BME280;50592;52.958;-7.470;2022-08-25T03:28:05;100842.13;;;11.68;74.73
64253;BME280;50592;52.958;-7.470;2022-08-25T03:30:31;100841.56;;;11.64;74.13
64253;BME280;50592;52.958;-7.470;2022-08-25T03:32:57;100841.84;;;11.61;74.16
64253;BME280;50592;52.958;-7.470;2022-08-25T03:35:23;100841.03;;;11.61;73.97
64253;BME280;50592;52.958;-7.470;2022-08-25T03:37:49;100841.84;;;11.61;73.70
64253;BME280;50592;52.958;-7.470;2022-08-25T03:40:15;100841.47;;;11.56;73.92
64253;BME280;50592;52.958;-7.470;2022-08-25T03:42:45;100834.19;;;11.48;73.95
64253;BME280;50592;52.958;-7.470;2022-08-25T03:45:13;100829.88;;;11.47;74.13
64253;BME280;50592;52.958;-7.470;2022-08-25T03:47:39;100841.31;;;11.48;73.87
64253;BME280;50592;52.958;-7.470;2022-08-25T03:50:07;100832.13;;;11.42;73.67
64253;BME280;50592;52.958;-7.470;2022-08-25T03:52:34;100836.16;;;11.26;73.39
64253;BME280;50592;52.958;-7.470;2022-08-25T03:55:03;100839.50;;;11.19;73.71
64253;BME280;50592;52.958;-7.470;2022-08-25T03:57:30;100841.16;;;11.20;73.84
64253;BME280;50592;52.958;-7.470;2022-08-25T03:59:55;100848.16;;;11.21;73.82
64253;BME280;50592;52.958;-7.470;2022-08-25T04:02:21;100845.22;;;11.24;73.98
64253;BME280;50592;52.958;-7.470;2022-08-25T04:04:47;100845.38;;;11.32;74.56
64253;BME280;50592;52.958;-7.470;2022-08-25T04:07:13;100843.53;;;11.33;74.50
64253;BME280;50592;52.958;-7.470;2022-08-25T04:09:39;100836.44;;;11.33;74.76
64253;BME280;50592;52.958;-7.470;2022-08-25T04:12:05;100834.09;;;11.40;75.29
64253;BME280;50592;52.958;-7.470;2022-08-25T04:14:30;100833.94;;;11.51;75.77
64253;BME280;50592;52.958;-7.470;2022-08-25T04:16:56;100825.00;;;11.62;76.11
64253;BME280;50592;52.958;-7.470;2022-08-25T04:19:22;100824.31;;;11.60;75.36
64253;BME280;50592;52.958;-7.470;2022-08-25T04:21:48;100828.09;;;11.58;75.60
64253;BME280;50592;52.958;-7.470;2022-08-25T04:24:14;100823.31;;;11.61;75.82
64253;BME280;50592;52.958;-7.470;2022-08-25T04:26:46;100816.63;;;11.67;75.76
64253;BME280;50592;52.958;-7.470;2022-08-25T04:29:15;100825.69;;;11.64;75.36
64253;BME280;50592;52.958;-7.470;2022-08-25T04:31:43;100823.34;;;11.51;75.59
64253;BME280;50592;52.958;-7.470;2022-08-25T04:34:12;100820.16;;;11.48;75.89
64253;BME280;50592;52.958;-7.470;2022-08-25T04:36:38;100833.09;;;11.51;76.15
64253;BME280;50592;52.958;-7.470;2022-08-25T04:39:05;100825.44;;;11.48;76.20
64253;BME280;50592;52.958;-7.470;2022-08-25T04:41:31;100830.59;;;11.49;75.94
64253;BME280;50592;52.958;-7.470;2022-08-25T04:43:58;100827.53;;;11.54;75.67
64253;BME280;50592;52.958;-7.470;2022-08-25T04:46:27;100830.72;;;11.58;75.84
64253;BME280;50592;52.958;-7.470;2022-08-25T04:48:55;100825.56;;;11.56;76.41
64253;BME280;50592;52.958;-7.470;2022-08-25T04:51:26;100826.69;;;11.53;76.00
64253;BME280;50592;52.958;-7.470;2022-08-25T04:53:54;100818.88;;;11.52;76.38
64253;BME280;50592;52.958;-7.470;2022-08-25T04:56:22;100816.09;;;11.53;76.40
64253;BME280;50592;52.958;-7.470;2022-08-25T04:58:52;100819.03;;;11.50;76.28
64253;BME280;50592;52.958;-7.470;2022-08-25T05:01:21;100812.91;;;11.40;76.45
64253;BME280;50592;52.958;-7.470;2022-08-25T05:03:52;100813.34;;;11.35;76.32
64253;BME280;50592;52.958;-7.470;2022-08-25T05:06:18;100819.72;;;11.33;76.19
64253;BME280;50592;52.958;-7.470;2022-08-25T05:08:43;100818.19;;;11.30;76.13
64253;BME280;50592;52.958;-7.470;2022-08-25T05:11:11;100822.94;;;11.26;76.11
64253;BME280;50592;52.958;-7.470;2022-08-25T05:13:40;100824.34;;;11.21;76.26
64253;BME280;50592;52.958;-7.470;2022-08-25T05:16:06;100815.69;;;11.09;76.27
64253;BME280;50592;52.958;-7.470;2022-08-25T05:18:33;100818.06;;;11.12;76.27
64253;BME280;50592;52.958;-7.470;2022-08-25T05:21:08;100824.63;;;11.18;75.94
64253;BME280;50592;52.958;-7.470;2022-08-25T05:23:36;100829.78;;;11.19;76.13
64253;BME280;50592;52.958;-7.470;2022-08-25T05:26:07;100819.88;;;11.21;75.71
64253;BME280;50592;52.958;-7.470;2022-08-25T05:28:33;100822.25;;;11.14;75.84
64253;BME280;50592;52.958;-7.470;2022-08-25T05:31:00;100824.59;;;11.08;76.26
64253;BME280;50592;52.958;-7.470;2022-08-25T05:33:27;100825.44;;;11.08;76.35
64253;BME280;50592;52.958;-7.470;2022-08-25T05:35:53;100829.06;;;11.07;76.65
64253;BME280;50592;52.958;-7.470;2022-08-25T05:38:20;100828.66;;;11.02;76.69
64253;BME280;50592;52.958;-7.470;2022-08-25T05:40:46;100837.00;;;10.97;76.88
64253;BME280;50592;52.958;-7.470;2022-08-25T05:43:12;100828.34;;;10.95;77.15
64253;BME280;50592;52.958;-7.470;2022-08-25T05:45:40;100832.78;;;10.85;76.92
64253;BME280;50592;52.958;-7.470;2022-08-25T05:48:05;100833.59;;;10.75;76.96
64253;BME280;50592;52.958;-7.470;2022-08-25T05:50:31;100833.31;;;10.78;77.19
64253;BME280;50592;52.958;-7.470;2022-08-25T05:52:57;100835.56;;;10.83;77.11
64253;BME280;50592;52.958;-7.470;2022-08-25T05:55:23;100844.88;;;10.77;76.69
64253;BME280;50592;52.958;-7.470;2022-08-25T05:57:49;100837.09;;;10.76;76.83
64253;BME280;50592;52.958;-7.470;2022-08-25T06:00:15;100838.34;;;10.72;76.77
64253;BME280;50592;52.958;-7.470;2022-08-25T06:02:41;100842.06;;;10.69;76.98
64253;BME280;50592;52.958;-7.470;2022-08-25T06:05:15;100840.41;;;10.68;77.00
64253;BME280;50592;52.958;-7.470;2022-08-25T06:07:42;100849.31;;;10.67;76.94
64253;BME280;50592;52.958;-7.470;2022-08-25T06:10:09;100849.88;;;10.71;77.04
64253;BME280;50592;52.958;-7.470;2022-08-25T06:12:37;100845.88;;;10.76;77.40
64253;BME280;50592;52.958;-7.470;2022-08-25T06:15:03;100849.63;;;10.84;77.05
64253;BME280;50592;52.958;-7.470;2022-08-25T06:17:30;100854.38;;;10.90;77.39
64253;BME280;50592;52.958;-7.470;2022-08-25T06:19:55;100842.13;;;10.89;77.36
64253;BME280;50592;52.958;-7.470;2022-08-25T06:22:22;100854.81;;;10.95;77.66
64253;BME280;50592;52.958;-7.470;2022-08-25T06:24:50;100853.41;;;11.01;77.70
64253;BME280;50592;52.958;-7.470;2022-08-25T06:27:16;100859.84;;;11.08;77.31
64253;BME280;50592;52.958;-7.470;2022-08-25T06:29:43;100856.50;;;11.16;77.21
64253;BME280;50592;52.958;-7.470;2022-08-25T06:32:09;100863.59;;;11.15;77.45
64253;BME280;50592;52.958;-7.470;2022-08-25T06:34:34;100861.25;;;11.22;77.74
64253;BME280;50592;52.958;-7.470;2022-08-25T06:37:00;100858.75;;;11.31;77.99
64253;BME280;50592;52.958;-7.470;2022-08-25T06:39:27;100855.25;;;11.40;77.55
64253;BME280;50592;52.958;-7.470;2022-08-25T06:41:54;100858.16;;;11.47;77.70
64253;BME280;50592;52.958;-7.470;2022-08-25T06:44:24;100855.38;;;11.48;78.08
64253;BME280;50592;52.958;-7.470;2022-08-25T06:46:52;100863.47;;;11.57;78.57
64253;BME280;50592;52.958;-7.470;2022-08-25T06:49:18;100862.22;;;11.61;78.35
64253;BME280;50592;52.958;-7.470;2022-08-25T06:51:44;100862.75;;;11.64;78.79
64253;BME280;50592;52.958;-7.470;2022-08-25T06:54:11;100869.31;;;11.70;79.09
64253;BME280;50592;52.958;-7.470;2022-08-25T06:56:39;100853.81;;;11.75;79.25
64253;BME280;50592;52.958;-7.470;2022-08-25T06:59:06;100858.81;;;11.78;79.51
64253;BME280;50592;52.958;-7.470;2022-08-25T07:01:33;100862.75;;;11.84;79.66
64253;BME280;50592;52.958;-7.470;2022-08-25T07:04:00;100860.22;;;11.93;80.02
64253;BME280;50592;52.958;-7.470;2022-08-25T07:06:28;100864.09;;;11.98;80.19
64253;BME280;50592;52.958;-7.470;2022-08-25T07:08:55;100863.38;;;12.06;80.49
64253;BME280;50592;52.958;-7.470;2022-08-25T07:11:21;100860.19;;;12.12;80.69
64253;BME280;50592;52.958;-7.470;2022-08-25T07:13:47;100868.94;;;12.23;80.64
64253;BME280;50592;52.958;-7.470;2022-08-25T07:16:14;100871.28;;;12.36;80.70
64253;BME280;50592;52.958;-7.470;2022-08-25T07:18:40;100873.56;;;12.49;80.97
64253;BME280;50592;52.958;-7.470;2022-08-25T07:21:06;100871.97;;;12.66;81.28
64253;BME280;50592;52.958;-7.470;2022-08-25T07:23:32;100881.56;;;12.95;81.79
64253;BME280;50592;52.958;-7.470;2022-08-25T07:26:13;100881.09;;;13.28;81.90
64253;BME280;50592;52.958;-7.470;2022-08-25T07:28:40;100878.78;;;13.70;81.80
64253;BME280;50592;52.958;-7.470;2022-08-25T07:31:06;100883.38;;;14.04;81.32
64253;BME280;50592;52.958;-7.470;2022-08-25T07:33:32;100878.72;;;14.33;80.59
64253;BME280;50592;52.958;-7.470;2022-08-25T07:35:58;100879.34;;;14.61;79.86
64253;BME280;50592;52.958;-7.470;2022-08-25T07:38:24;100876.78;;;14.86;79.27
64253;BME280;50592;52.958;-7.470;2022-08-25T07:40:50;100880.47;;;15.02;78.26
64253;BME280;50592;52.958;-7.470;2022-08-25T07:43:22;100877.16;;;15.08;77.84
64253;BME280;50592;52.958;-7.470;2022-08-25T07:45:48;100876.19;;;15.09;77.66
64253;BME280;50592;52.958;-7.470;2022-08-25T07:48:15;100879.84;;;15.17;77.22
64253;BME280;50592;52.958;-7.470;2022-08-25T07:50:42;100876.69;;;15.21;76.82
64253;BME280;50592;52.958;-7.470;2022-08-25T07:53:11;100877.53;;;15.22;76.63
64253;BME280;50592;52.958;-7.470;2022-08-25T07:55:37;100881.84;;;15.23;76.55
64253;BME280;50592;52.958;-7.470;2022-08-25T07:58:05;100889.81;;;15.23;76.36
64253;BME280;50592;52.958;-7.470;2022-08-25T08:00:33;100892.81;;;15.20;76.45
64253;BME280;50592;52.958;-7.470;2022-08-25T08:03:03;100894.66;;;15.11;76.65
64253;BME280;50592;52.958;-7.470;2022-08-25T08:05:30;100887.16;;;15.06;77.02
64253;BME280;50592;52.958;-7.470;2022-08-25T08:07:56;100894.28;;;15.06;77.13
64253;BME280;50592;52.958;-7.470;2022-08-25T08:10:22;100898.63;;;15.07;77.41
64253;BME280;50592;52.958;-7.470;2022-08-25T08:12:50;100898.44;;;15.08;77.38
64253;BME280;50592;52.958;-7.470;2022-08-25T08:15:16;100903.44;;;15.03;77.49
64253;BME280;50592;52.958;-7.470;2022-08-25T08:17:42;100899.44;;;14.99;77.73
64253;BME280;50592;52.958;-7.470;2022-08-25T08:20:09;100898.28;;;15.02;77.68
64253;BME280;50592;52.958;-7.470;2022-08-25T08:22:36;100896.75;;;14.99;77.74
64253;BME280;50592;52.958;-7.470;2022-08-25T08:25:03;100900.94;;;15.02;77.82
64253;BME280;50592;52.958;-7.470;2022-08-25T08:27:29;100900.47;;;15.06;77.79
64253;BME280;50592;52.958;-7.470;2022-08-25T08:29:55;100904.97;;;15.14;77.78
64253;BME280;50592;52.958;-7.470;2022-08-25T08:32:21;100905.00;;;15.22;77.53
64253;BME280;50592;52.958;-7.470;2022-08-25T08:34:47;100907.66;;;15.31;77.38
64253;BME280;50592;52.958;-7.470;2022-08-25T08:37:14;100908.84;;;15.36;77.36
64253;BME280;50592;52.958;-7.470;2022-08-25T08:39:41;100913.50;;;15.43;77.20
64253;BME280;50592;52.958;-7.470;2022-08-25T08:48:22;100920.00;;;15.57;76.62
64253;BME280;50592;52.958;-7.470;2022-08-25T08:51:18;100918.84;;;15.68;76.47
64253;BME280;50592;52.958;-7.470;2022-08-25T08:54:09;100916.00;;;15.78;76.05
64253;BME280;50592;52.958;-7.470;2022-08-25T08:56:47;100916.50;;;15.90;75.85
64253;BME280;50592;52.958;-7.470;2022-08-25T08:59:18;100920.16;;;15.97;75.70
64253;BME280;50592;52.958;-7.470;2022-08-25T09:01:47;100922.69;;;15.98;75.53
64253;BME280;50592;52.958;-7.470;2022-08-25T09:04:18;100924.69;;;16.05;75.28
64253;BME280;50592;52.958;-7.470;2022-08-25T09:06:48;100917.53;;;16.05;74.97
64253;BME280;50592;52.958;-7.470;2022-08-25T09:09:27;100912.84;;;16.07;74.44
64253;BME280;50592;52.958;-7.470;2022-08-25T09:12:05;100910.84;;;16.09;74.46
64253;BME280;50592;52.958;-7.470;2022-08-25T09:25:55;100921.00;;;16.22;73.12
64253;BME280;50592;52.958;-7.470;2022-08-25T09:31:04;100921.16;;;16.29;72.34
64253;BME280;50592;52.958;-7.470;2022-08-25T09:33:35;100919.63;;;16.35;72.14
64253;BME280;50592;52.958;-7.470;2022-08-25T09:36:02;100917.78;;;16.35;71.94
64253;BME280;50592;52.958;-7.470;2022-08-25T09:38:28;100913.28;;;16.36;71.67
64253;BME280;50592;52.958;-7.470;2022-08-25T09:40:58;100915.41;;;16.49;71.60
64253;BME280;50592;52.958;-7.470;2022-08-25T09:48:29;100923.75;;;16.46;70.64
64253;BME280;50592;52.958;-7.470;2022-08-25T09:51:29;100924.75;;;16.45;70.31
64253;BME280;50592;52.958;-7.470;2022-08-25T09:56:53;100910.25;;;16.47;69.59
64253;BME280;50592;52.958;-7.470;2022-08-25T09:59:31;100920.75;;;16.49;69.36
64253;BME280;50592;52.958;-7.470;2022-08-25T10:02:04;100909.91;;;16.51;69.50
64253;BME280;50592;52.958;-7.470;2022-08-25T10:04:38;100910.38;;;16.63;69.34
64253;BME280;50592;52.958;-7.470;2022-08-25T10:07:28;100901.66;;;16.69;68.84
64253;BME280;50592;52.958;-7.470;2022-08-25T10:09:55;100917.84;;;16.67;68.79
64253;BME280;50592;52.958;-7.470;2022-08-25T10:12:29;100916.50;;;16.71;68.91
64253;BME280;50592;52.958;-7.470;2022-08-25T10:14:57;100920.81;;;16.72;68.96
64253;BME280;50592;52.958;-7.470;2022-08-25T10:17:30;100911.50;;;16.68;68.66
64253;BME280;50592;52.958;-7.470;2022-08-25T10:22:39;100917.75;;;16.84;67.96
64253;BME280;50592;52.958;-7.470;2022-08-25T10:25:10;100913.06;;;16.94;67.36
64253;BME280;50592;52.958;-7.470;2022-08-25T10:30:43;100904.78;;;17.04;66.16
64253;BME280;50592;52.958;-7.470;2022-08-25T10:38:39;100902.47;;;17.33;65.05
64253;BME280;50592;52.958;-7.470;2022-08-25T10:49:50;100901.94;;;17.38;63.74
64253;BME280;50592;52.958;-7.470;2022-08-25T10:52:23;100900.66;;;17.33;63.94
64253;BME280;50592;52.958;-7.470;2022-08-25T11:00:19;100893.03;;;17.22;64.05
64253;BME280;50592;52.958;-7.470;2022-08-25T11:05:58;100895.72;;;17.22;63.00
64253;BME280;50592;52.958;-7.470;2022-08-25T11:10:59;100896.25;;;17.41;62.19
64253;BME280;50592;52.958;-7.470;2022-08-25T11:13:43;100890.13;;;17.55;61.77
64253;BME280;50592;52.958;-7.470;2022-08-25T11:18:58;100884.47;;;17.89;60.94
64253;BME280;50592;52.958;-7.470;2022-08-25T11:21:46;100874.19;;;18.01;60.30
64253;BME280;50592;52.958;-7.470;2022-08-25T11:24:40;100876.44;;;18.12;59.67
64253;BME280;50592;52.958;-7.470;2022-08-25T11:27:14;100864.97;;;18.33;59.30
64253;BME280;50592;52.958;-7.470;2022-08-25T11:29:58;100865.69;;;18.57;58.28
64253;BME280;50592;52.958;-7.470;2022-08-25T11:32:27;100861.78;;;18.75;57.74
64253;BME280;50592;52.958;-7.470;2022-08-25T11:35:03;100862.84;;;18.81;57.12
64253;BME280;50592;52.958;-7.470;2022-08-25T11:37:31;100844.66;;;18.91;57.03
64253;BME280;50592;52.958;-7.470;2022-08-25T11:42:51;100843.53;;;19.23;55.89
64253;BME280;50592;52.958;-7.470;2022-08-25T11:45:57;100841.50;;;19.25;54.87
64253;BME280;50592;52.958;-7.470;2022-08-25T11:48:49;100843.22;;;19.11;54.67
64253;BME280;50592;52.958;-7.470;2022-08-25T11:51:33;100847.22;;;19.00;55.53
64253;BME280;50592;52.958;-7.470;2022-08-25T11:54:26;100836.06;;;18.81;55.46
64253;BME280;50592;52.958;-7.470;2022-08-25T11:57:03;100840.44;;;18.82;55.66
64253;BME280;50592;52.958;-7.470;2022-08-25T12:04:53;100841.50;;;18.51;56.27
64253;BME280;50592;52.958;-7.470;2022-08-25T12:07:24;100839.88;;;18.34;56.25
64253;BME280;50592;52.958;-7.470;2022-08-25T12:12:31;100841.63;;;18.27;56.42
64253;BME280;50592;52.958;-7.470;2022-08-25T12:23:36;100817.69;;;19.15;54.29
64253;BME280;50592;52.958;-7.470;2022-08-25T12:28:52;100811.94;;;19.18;54.62
64253;BME280;50592;52.958;-7.470;2022-08-25T12:31:42;100807.63;;;19.17;54.62
64253;BME280;50592;52.958;-7.470;2022-08-25T12:37:04;100810.38;;;19.08;54.57
64253;BME280;50592;52.958;-7.470;2022-08-25T12:39:42;100807.25;;;19.05;54.53
64253;BME280;50592;52.958;-7.470;2022-08-25T12:42:22;100806.38;;;18.97;54.57
64253;BME280;50592;52.958;-7.470;2022-08-25T12:47:33;100810.22;;;18.88;54.64
64253;BME280;50592;52.958;-7.470;2022-08-25T12:53:34;100809.13;;;18.82;54.92
64253;BME280;50592;52.958;-7.470;2022-08-25T12:56:06;100801.09;;;18.82;54.97
64253;BME280;50592;52.958;-7.470;2022-08-25T12:58:46;100805.81;;;18.80;54.62
64253;BME280;50592;52.958;-7.470;2022-08-25T13:01:22;100802.03;;;18.75;54.65
64253;BME280;50592;52.958;-7.470;2022-08-25T13:03:57;100801.31;;;18.66;54.82
64253;BME280;50592;52.958;-7.470;2022-08-25T13:12:16;100800.81;;;18.99;54.00
64253;BME280;50592;52.958;-7.470;2022-08-25T13:14:54;100804.56;;;19.05;54.05
64253;BME280;50592;52.958;-7.470;2022-08-25T13:17:27;100797.19;;;19.07;53.65
64253;BME280;50592;52.958;-7.470;2022-08-25T13:22:47;100801.63;;;19.15;53.22
64253;BME280;50592;52.958;-7.470;2022-08-25T13:25:18;100802.84;;;19.12;52.91
64253;BME280;50592;52.958;-7.470;2022-08-25T13:27:48;100800.16;;;19.12;52.42
64253;BME280;50592;52.958;-7.470;2022-08-25T13:30:24;100797.53;;;19.19;52.30
64253;BME280;50592;52.958;-7.470;2022-08-25T13:32:51;100790.38;;;19.26;52.32
64253;BME280;50592;52.958;-7.470;2022-08-25T13:35:27;100797.00;;;19.30;52.02
64253;BME280;50592;52.958;-7.470;2022-08-25T13:37:53;100799.88;;;19.29;52.20
64253;BME280;50592;52.958;-7.470;2022-08-25T13:40:28;100787.75;;;19.33;51.16
64253;BME280;50592;52.958;-7.470;2022-08-25T13:43:02;100789.41;;;19.34;51.49
64253;BME280;50592;52.958;-7.470;2022-08-25T13:45:31;100785.56;;;19.43;51.60
64253;BME280;50592;52.958;-7.470;2022-08-25T13:48:02;100784.03;;;19.63;51.41
64253;BME280;50592;52.958;-7.470;2022-08-25T13:50:33;100778.00;;;19.89;50.90
64253;BME280;50592;52.958;-7.470;2022-08-25T13:53:12;100770.69;;;20.12;50.62
64253;BME280;50592;52.958;-7.470;2022-08-25T13:55:48;100767.84;;;20.20;50.40
64253;BME280;50592;52.958;-7.470;2022-08-25T13:58:18;100771.56;;;20.19;50.38
64253;BME280;50592;52.958;-7.470;2022-08-25T14:00:58;100762.69;;;20.18;50.33
64253;BME280;50592;52.958;-7.470;2022-08-25T14:03:39;100762.63;;;20.05;49.19
64253;BME280;50592;52.958;-7.470;2022-08-25T14:08:38;100759.00;;;19.91;50.48
64253;BME280;50592;52.958;-7.470;2022-08-25T14:11:29;100754.44;;;19.84;50.74
64253;BME280;50592;52.958;-7.470;2022-08-25T14:14:00;100764.31;;;19.77;50.41
64253;BME280;50592;52.958;-7.470;2022-08-25T14:16:27;100758.31;;;19.75;50.89
64253;BME280;50592;52.958;-7.470;2022-08-25T14:18:55;100757.94;;;19.78;51.08
64253;BME280;50592;52.958;-7.470;2022-08-25T14:21:25;100763.09;;;19.80;51.11
64253;BME280;50592;52.958;-7.470;2022-08-25T14:23:53;100756.28;;;19.77;50.72
64253;BME280;50592;52.958;-7.470;2022-08-25T14:26:19;100754.84;;;19.75;51.01
64253;BME280;50592;52.958;-7.470;2022-08-25T14:28:45;100757.72;;;19.73;50.84
64253;BME280;50592;52.958;-7.470;2022-08-25T14:31:14;100754.00;;;19.74;51.00
64253;BME280;50592;52.958;-7.470;2022-08-25T14:33:43;100744.50;;;19.78;50.82
64253;BME280;50592;52.958;-7.470;2022-08-25T14:36:12;100737.94;;;19.81;50.80
64253;BME280;50592;52.958;-7.470;2022-08-25T14:38:38;100742.50;;;19.87;50.78
64253;BME280;50592;52.958;-7.470;2022-08-25T14:41:05;100736.75;;;19.90;50.66